logo
Rechercher aéroport 
image banner adimage banner adimage banner ad
image banner ad

CN38 - Flying B Ranch

Situé à Franklin, United States

ICAO - CN38, IATA -

Données fournies par Airmate  

Information générale

Coordonnées: N38°20'29" W121°26'15"
Élévation : 19 feet MSL.
Variation magnétique : 16° East
Voir autres Aéroports à California

Données opérationnelles

Special qualification required
Heure actuelle UTC:
Heure actuelle locale:
Météo à : KSAC - Sacramento Executive ( 20 km )
METAR: KSAC 011753Z VRB04KT 10SM CLR 22/13 A2981 RMK AO2 SLP096 T02220128 10222 20139 53004
TAF: KSAC 011721Z 0118/0218 VRB05KT P6SM SKC FM012300 22009KT P6SM SKC FM020700 17006KT P6SM SKC
Voir NOTAMs / SUP AIP / TFR affectant cet aéroport [VIEW]
Fréquences de communication: [VIEW]

Pistes:

Identifiant RWYQFULongueur (ft)Largeur (ft)SurfaceLDA (ft)
14138550GRASS
32138550GRASS

Coordonnées de l'aéroport

Adresse: Franklin United States

Vue satellite de CN38